sensor_id;sensor_type;location;lat;lon;timestamp;temperature;humidity
5775;DHT22;2913;51.120;6.772;2022-08-03T00:00:54;22.70;99.90
5775;DHT22;2913;51.120;6.772;2022-08-03T00:03:23;22.60;99.90
5775;DHT22;2913;51.120;6.772;2022-08-03T00:05:50;22.60;99.90
5775;DHT22;2913;51.120;6.772;2022-08-03T00:08:16;22.60;99.90
5775;DHT22;2913;51.120;6.772;2022-08-03T00:10:42;22.60;99.90
5775;DHT22;2913;51.120;6.772;2022-08-03T00:13:07;22.70;99.90
5775;DHT22;2913;51.120;6.772;2022-08-03T00:15:33;22.70;99.90
5775;DHT22;2913;51.120;6.772;2022-08-03T00:18:01;22.70;99.90
5775;DHT22;2913;51.120;6.772;2022-08-03T00:20:27;22.60;99.90
5775;DHT22;2913;51.120;6.772;2022-08-03T00:22:55;22.50;99.90
5775;DHT22;2913;51.120;6.772;2022-08-03T00:25:20;22.50;99.90
5775;DHT22;2913;51.120;6.772;2022-08-03T00:27:46;22.50;99.90
5775;DHT22;2913;51.120;6.772;2022-08-03T00:30:12;22.50;99.90
5775;DHT22;2913;51.120;6.772;2022-08-03T00:32:37;22.50;99.90
5775;DHT22;2913;51.120;6.772;2022-08-03T00:35:03;22.40;99.90
5775;DHT22;2913;51.120;6.772;2022-08-03T00:37:29;22.40;99.90
5775;DHT22;2913;51.120;6.772;2022-08-03T00:39:57;22.40;99.90
5775;DHT22;2913;51.120;6.772;2022-08-03T00:42:23;22.30;99.90
5775;DHT22;2913;51.120;6.772;2022-08-03T00:44:51;22.30;99.90
5775;DHT22;2913;51.120;6.772;2022-08-03T00:47:16;22.30;99.90
5775;DHT22;2913;51.120;6.772;2022-08-03T00:49:42;22.30;99.90
5775;DHT22;2913;51.120;6.772;2022-08-03T00:52:11;22.20;99.90
5775;DHT22;2913;51.120;6.772;2022-08-03T00:54:41;22.10;99.90
5775;DHT22;2913;51.120;6.772;2022-08-03T00:57:07;22.10;99.90
5775;DHT22;2913;51.120;6.772;2022-08-03T00:59:32;22.00;99.90
5775;DHT22;2913;51.120;6.772;2022-08-03T01:01:59;22.10;99.90
5775;DHT22;2913;51.120;6.772;2022-08-03T01:04:27;22.10;99.90
5775;DHT22;2913;51.120;6.772;2022-08-03T01:07:06;22.10;99.90
5775;DHT22;2913;51.120;6.772;2022-08-03T01:20:19;21.90;99.90
5775;DHT22;2913;51.120;6.772;2022-08-03T01:32:10;21.70;99.90
5775;DHT22;2913;51.120;6.772;2022-08-03T01:34:44;21.70;99.90
5775;DHT22;2913;51.120;6.772;2022-08-03T01:37:14;21.70;99.90
5775;DHT22;2913;51.120;6.772;2022-08-03T01:39:43;21.70;99.90
5775;DHT22;2913;51.120;6.772;2022-08-03T01:42:10;21.70;99.90
5775;DHT22;2913;51.120;6.772;2022-08-03T01:44:40;21.60;99.90
5775;DHT22;2913;51.120;6.772;2022-08-03T01:47:07;21.60;99.90
5775;DHT22;2913;51.120;6.772;2022-08-03T01:49:38;21.60;99.90
5775;DHT22;2913;51.120;6.772;2022-08-03T01:52:07;21.60;99.90
5775;DHT22;2913;51.120;6.772;2022-08-03T01:54:41;21.60;99.90
5775;DHT22;2913;51.120;6.772;2022-08-03T01:57:10;21.60;99.90
5775;DHT22;2913;51.120;6.772;2022-08-03T01:59:37;21.50;99.90
5775;DHT22;2913;51.120;6.772;2022-08-03T02:02:07;21.50;99.90
5775;DHT22;2913;51.120;6.772;2022-08-03T02:04:36;21.50;99.90
5775;DHT22;2913;51.120;6.772;2022-08-03T02:07:05;21.40;99.90
5775;DHT22;2913;51.120;6.772;2022-08-03T02:09:32;21.40;99.90
5775;DHT22;2913;51.120;6.772;2022-08-03T02:11:59;21.30;99.90
5775;DHT22;2913;51.120;6.772;2022-08-03T02:14:25;21.40;99.90
5775;DHT22;2913;51.120;6.772;2022-08-03T02:16:55;21.30;99.90
5775;DHT22;2913;51.120;6.772;2022-08-03T02:19:24;21.40;99.90
5775;DHT22;2913;51.120;6.772;2022-08-03T02:21:52;21.30;99.90
5775;DHT22;2913;51.120;6.772;2022-08-03T02:24:18;21.30;99.90
5775;DHT22;2913;51.120;6.772;2022-08-03T02:26:44;21.30;99.90
5775;DHT22;2913;51.120;6.772;2022-08-03T02:29:19;21.30;99.90
5775;DHT22;2913;51.120;6.772;2022-08-03T02:31:46;21.30;99.90
5775;DHT22;2913;51.120;6.772;2022-08-03T02:34:17;21.30;99.90
5775;DHT22;2913;51.120;6.772;2022-08-03T02:36:49;21.20;99.90
5775;DHT22;2913;51.120;6.772;2022-08-03T02:39:20;21.30;99.90
5775;DHT22;2913;51.120;6.772;2022-08-03T02:41:51;21.30;99.90
5775;DHT22;2913;51.120;6.772;2022-08-03T02:44:24;21.20;99.90
5775;DHT22;2913;51.120;6.772;2022-08-03T02:46:56;21.10;99.90
5775;DHT22;2913;51.120;6.772;2022-08-03T02:49:24;21.10;99.90
5775;DHT22;2913;51.120;6.772;2022-08-03T02:51:52;21.00;99.90
5775;DHT22;2913;51.120;6.772;2022-08-03T02:54:20;21.30;99.90
5775;DHT22;2913;51.120;6.772;2022-08-03T02:56:47;21.20;99.90
5775;DHT22;2913;51.120;6.772;2022-08-03T02:59:19;21.20;99.90
5775;DHT22;2913;51.120;6.772;2022-08-03T03:01:48;21.20;99.90
5775;DHT22;2913;51.120;6.772;2022-08-03T03:04:14;21.10;99.90
5775;DHT22;2913;51.120;6.772;2022-08-03T03:06:43;21.10;99.90
5775;DHT22;2913;51.120;6.772;2022-08-03T03:09:10;21.00;99.90
5775;DHT22;2913;51.120;6.772;2022-08-03T03:11:38;21.00;99.90
5775;DHT22;2913;51.120;6.772;2022-08-03T03:14:04;21.00;99.90
5775;DHT22;2913;51.120;6.772;2022-08-03T03:16:30;21.00;99.90
5775;DHT22;2913;51.120;6.772;2022-08-03T03:18:57;21.00;99.90
5775;DHT22;2913;51.120;6.772;2022-08-03T03:21:24;21.00;99.90
5775;DHT22;2913;51.120;6.772;2022-08-03T03:23:51;21.00;99.90
5775;DHT22;2913;51.120;6.772;2022-08-03T03:26:18;21.10;99.90
5775;DHT22;2913;51.120;6.772;2022-08-03T03:28:46;21.00;99.90
5775;DHT22;2913;51.120;6.772;2022-08-03T03:31:12;21.00;99.90
5775;DHT22;2913;51.120;6.772;2022-08-03T03:33:38;20.90;99.90
5775;DHT22;2913;51.120;6.772;2022-08-03T03:36:05;20.90;99.90
5775;DHT22;2913;51.120;6.772;2022-08-03T03:38:31;20.90;99.90
5775;DHT22;2913;51.120;6.772;2022-08-03T03:40:57;20.90;99.90
5775;DHT22;2913;51.120;6.772;2022-08-03T03:43:25;20.90;99.90
5775;DHT22;2913;51.120;6.772;2022-08-03T03:45:54;20.80;99.90
5775;DHT22;2913;51.120;6.772;2022-08-03T03:48:20;20.90;99.90
5775;DHT22;2913;51.120;6.772;2022-08-03T03:50:48;20.80;99.90
5775;DHT22;2913;51.120;6.772;2022-08-03T03:53:14;20.80;99.90
5775;DHT22;2913;51.120;6.772;2022-08-03T03:55:40;20.70;99.90
5775;DHT22;2913;51.120;6.772;2022-08-03T03:58:08;20.60;99.90
5775;DHT22;2913;51.120;6.772;2022-08-03T04:00:38;20.60;99.90
5775;DHT22;2913;51.120;6.772;2022-08-03T04:03:04;20.60;99.90
5775;DHT22;2913;51.120;6.772;2022-08-03T04:05:32;20.60;99.90
5775;DHT22;2913;51.120;6.772;2022-08-03T04:08:17;20.70;99.90
5775;DHT22;2913;51.120;6.772;2022-08-03T04:16:09;20.70;99.90
5775;DHT22;2913;51.120;6.772;2022-08-03T04:18:40;20.70;99.90
5775;DHT22;2913;51.120;6.772;2022-08-03T04:21:09;20.80;99.90
5775;DHT22;2913;51.120;6.772;2022-08-03T04:23:40;20.80;99.90
5775;DHT22;2913;51.120;6.772;2022-08-03T04:26:11;20.90;99.90
5775;DHT22;2913;51.120;6.772;2022-08-03T04:28:42;20.80;99.90
5775;DHT22;2913;51.120;6.772;2022-08-03T04:31:14;20.80;99.90
5775;DHT22;2913;51.120;6.772;2022-08-03T04:33:41;20.90;99.90
5775;DHT22;2913;51.120;6.772;2022-08-03T04:36:15;20.90;99.90
5775;DHT22;2913;51.120;6.772;2022-08-03T04:39:04;21.00;99.90
5775;DHT22;2913;51.120;6.772;2022-08-03T04:41:34;21.00;99.90
5775;DHT22;2913;51.120;6.772;2022-08-03T04:44:01;21.00;99.90
5775;DHT22;2913;51.120;6.772;2022-08-03T04:46:37;21.00;99.90
5775;DHT22;2913;51.120;6.772;2022-08-03T04:49:05;21.10;99.90
5775;DHT22;2913;51.120;6.772;2022-08-03T04:51:33;21.50;99.90
5775;DHT22;2913;51.120;6.772;2022-08-03T04:54:02;21.70;99.90
5775;DHT22;2913;51.120;6.772;2022-08-03T04:56:31;22.50;99.90
5775;DHT22;2913;51.120;6.772;2022-08-03T04:58:58;23.40;99.90
5775;DHT22;2913;51.120;6.772;2022-08-03T05:01:24;24.10;99.90
5775;DHT22;2913;51.120;6.772;2022-08-03T05:03:50;24.60;99.90
5775;DHT22;2913;51.120;6.772;2022-08-03T05:06:21;25.10;99.90
5775;DHT22;2913;51.120;6.772;2022-08-03T05:08:46;25.70;99.90
5775;DHT22;2913;51.120;6.772;2022-08-03T05:11:15;25.60;99.90
5775;DHT22;2913;51.120;6.772;2022-08-03T05:13:42;26.00;99.90
5775;DHT22;2913;51.120;6.772;2022-08-03T05:16:07;25.70;99.90
5775;DHT22;2913;51.120;6.772;2022-08-03T05:18:33;26.20;99.90
5775;DHT22;2913;51.120;6.772;2022-08-03T05:21:00;26.40;99.90
5775;DHT22;2913;51.120;6.772;2022-08-03T05:23:26;26.70;99.90
5775;DHT22;2913;51.120;6.772;2022-08-03T05:25:54;26.70;99.90
5775;DHT22;2913;51.120;6.772;2022-08-03T05:28:20;27.00;99.90
5775;DHT22;2913;51.120;6.772;2022-08-03T05:30:48;27.60;99.90
5775;DHT22;2913;51.120;6.772;2022-08-03T05:33:16;28.20;99.80
5775;DHT22;2913;51.120;6.772;2022-08-03T05:35:47;28.50;97.40
5775;DHT22;2913;51.120;6.772;2022-08-03T05:38:12;28.00;96.00
5775;DHT22;2913;51.120;6.772;2022-08-03T05:40:40;28.20;96.20
5775;DHT22;2913;51.120;6.772;2022-08-03T05:43:08;28.00;96.40
5775;DHT22;2913;51.120;6.772;2022-08-03T05:45:35;28.00;96.00
5775;DHT22;2913;51.120;6.772;2022-08-03T05:48:01;28.10;95.90
5775;DHT22;2913;51.120;6.772;2022-08-03T05:50:27;27.90;96.10
5775;DHT22;2913;51.120;6.772;2022-08-03T05:52:55;27.90;96.00
5775;DHT22;2913;51.120;6.772;2022-08-03T05:55:22;27.70;96.10
5775;DHT22;2913;51.120;6.772;2022-08-03T05:57:50;27.90;96.40
5775;DHT22;2913;51.120;6.772;2022-08-03T06:00:16;28.20;96.30
5775;DHT22;2913;51.120;6.772;2022-08-03T06:02:42;28.60;94.70
5775;DHT22;2913;51.120;6.772;2022-08-03T06:05:08;28.70;93.90
5775;DHT22;2913;51.120;6.772;2022-08-03T06:07:34;28.80;93.10
5775;DHT22;2913;51.120;6.772;2022-08-03T06:10:00;28.50;93.20
5775;DHT22;2913;51.120;6.772;2022-08-03T06:12:27;28.40;93.30
5775;DHT22;2913;51.120;6.772;2022-08-03T06:14:56;28.20;93.40
5775;DHT22;2913;51.120;6.772;2022-08-03T06:17:22;28.50;93.80
5775;DHT22;2913;51.120;6.772;2022-08-03T06:19:47;28.80;93.20
5775;DHT22;2913;51.120;6.772;2022-08-03T06:22:13;28.80;93.10
5775;DHT22;2913;51.120;6.772;2022-08-03T06:24:41;28.80;92.50
5775;DHT22;2913;51.120;6.772;2022-08-03T06:27:09;28.80;92.80
5775;DHT22;2913;51.120;6.772;2022-08-03T06:29:39;28.70;92.10
5775;DHT22;2913;51.120;6.772;2022-08-03T06:32:05;28.80;92.40
5775;DHT22;2913;51.120;6.772;2022-08-03T06:34:31;28.90;92.00
5775;DHT22;2913;51.120;6.772;2022-08-03T06:36:56;28.90;91.70
5775;DHT22;2913;51.120;6.772;2022-08-03T06:39:27;28.60;91.30
5775;DHT22;2913;51.120;6.772;2022-08-03T06:41:55;28.30;91.50
5775;DHT22;2913;51.120;6.772;2022-08-03T06:44:20;28.50;92.20
5775;DHT22;2913;51.120;6.772;2022-08-03T06:46:46;28.50;91.70
5775;DHT22;2913;51.120;6.772;2022-08-03T06:49:15;28.50;92.00
5775;DHT22;2913;51.120;6.772;2022-08-03T06:51:41;28.80;91.90
5775;DHT22;2913;51.120;6.772;2022-08-03T06:54:06;28.60;91.70
5775;DHT22;2913;51.120;6.772;2022-08-03T06:56:32;28.80;92.00
5775;DHT22;2913;51.120;6.772;2022-08-03T06:58:58;28.70;91.30
5775;DHT22;2913;51.120;6.772;2022-08-03T07:01:23;29.00;91.80
5775;DHT22;2913;51.120;6.772;2022-08-03T07:03:49;29.40;91.10
5775;DHT22;2913;51.120;6.772;2022-08-03T07:06:17;29.60;90.60
5775;DHT22;2913;51.120;6.772;2022-08-03T07:08:45;29.70;89.60
5775;DHT22;2913;51.120;6.772;2022-08-03T07:11:11;29.80;89.80
5775;DHT22;2913;51.120;6.772;2022-08-03T07:13:36;29.90;89.00
5775;DHT22;2913;51.120;6.772;2022-08-03T07:16:02;29.80;88.50
5775;DHT22;2913;51.120;6.772;2022-08-03T07:18:28;29.90;88.30
5775;DHT22;2913;51.120;6.772;2022-08-03T07:20:53;29.80;87.60
5775;DHT22;2913;51.120;6.772;2022-08-03T07:23:19;30.00;88.60
5775;DHT22;2913;51.120;6.772;2022-08-03T07:25:45;30.20;87.30
5775;DHT22;2913;51.120;6.772;2022-08-03T07:28:10;30.20;86.40
5775;DHT22;2913;51.120;6.772;2022-08-03T07:30:38;30.50;85.90
5775;DHT22;2913;51.120;6.772;2022-08-03T07:33:06;30.70;84.70
5775;DHT22;2913;51.120;6.772;2022-08-03T07:35:31;30.60;84.50
5775;DHT22;2913;51.120;6.772;2022-08-03T07:37:57;30.60;84.30
5775;DHT22;2913;51.120;6.772;2022-08-03T07:40:25;30.70;84.80
5775;DHT22;2913;51.120;6.772;2022-08-03T07:42:50;30.70;82.80
5775;DHT22;2913;51.120;6.772;2022-08-03T07:45:16;31.00;83.00
5775;DHT22;2913;51.120;6.772;2022-08-03T07:47:42;31.20;83.00
5775;DHT22;2913;51.120;6.772;2022-08-03T07:50:09;31.40;82.10
5775;DHT22;2913;51.120;6.772;2022-08-03T07:52:35;31.30;80.90
5775;DHT22;2913;51.120;6.772;2022-08-03T07:55:22;31.10;80.50
5775;DHT22;2913;51.120;6.772;2022-08-03T08:00:28;30.30;81.40
5775;DHT22;2913;51.120;6.772;2022-08-03T08:02:53;30.30;82.10
5775;DHT22;2913;51.120;6.772;2022-08-03T08:05:19;30.20;83.50
5775;DHT22;2913;51.120;6.772;2022-08-03T08:07:47;30.40;83.10
5775;DHT22;2913;51.120;6.772;2022-08-03T08:10:13;30.40;82.00
5775;DHT22;2913;51.120;6.772;2022-08-03T08:12:39;30.50;81.70
5775;DHT22;2913;51.120;6.772;2022-08-03T08:15:07;30.60;81.90
5775;DHT22;2913;51.120;6.772;2022-08-03T08:17:49;30.70;81.80
5775;DHT22;2913;51.120;6.772;2022-08-03T08:20:24;30.80;80.90
5775;DHT22;2913;51.120;6.772;2022-08-03T08:22:50;30.90;79.80
5775;DHT22;2913;51.120;6.772;2022-08-03T08:25:18;31.10;80.20
5775;DHT22;2913;51.120;6.772;2022-08-03T08:27:47;31.10;78.90
5775;DHT22;2913;51.120;6.772;2022-08-03T08:30:18;30.80;78.60
5775;DHT22;2913;51.120;6.772;2022-08-03T08:32:45;31.00;79.80
5775;DHT22;2913;51.120;6.772;2022-08-03T08:35:11;31.20;79.70
5775;DHT22;2913;51.120;6.772;2022-08-03T08:37:37;31.20;78.40
5775;DHT22;2913;51.120;6.772;2022-08-03T08:40:06;31.00;77.40
5775;DHT22;2913;51.120;6.772;2022-08-03T08:42:33;31.10;78.10
5775;DHT22;2913;51.120;6.772;2022-08-03T08:44:59;31.00;77.20
5775;DHT22;2913;51.120;6.772;2022-08-03T08:47:30;31.20;77.70
5775;DHT22;2913;51.120;6.772;2022-08-03T08:49:59;31.20;77.10
5775;DHT22;2913;51.120;6.772;2022-08-03T08:52:29;31.30;77.10
5775;DHT22;2913;51.120;6.772;2022-08-03T08:54:58;31.30;76.20
5775;DHT22;2913;51.120;6.772;2022-08-03T08:57:29;31.30;76.10
5775;DHT22;2913;51.120;6.772;2022-08-03T08:59:58;31.30;76.50
5775;DHT22;2913;51.120;6.772;2022-08-03T09:02:28;31.40;75.80
5775;DHT22;2913;51.120;6.772;2022-08-03T09:04:57;31.40;75.80
5775;DHT22;2913;51.120;6.772;2022-08-03T09:07:23;31.30;75.50
5775;DHT22;2913;51.120;6.772;2022-08-03T09:09:48;31.30;75.80
5775;DHT22;2913;51.120;6.772;2022-08-03T09:12:14;31.20;75.70
5775;DHT22;2913;51.120;6.772;2022-08-03T09:14:40;31.40;76.40
5775;DHT22;2913;51.120;6.772;2022-08-03T09:17:06;31.40;76.00
5775;DHT22;2913;51.120;6.772;2022-08-03T09:19:34;31.50;76.20
5775;DHT22;2913;51.120;6.772;2022-08-03T09:22:16;31.50;75.20
5775;DHT22;2913;51.120;6.772;2022-08-03T09:25:00;31.30;74.50
5775;DHT22;2913;51.120;6.772;2022-08-03T09:27:26;31.40;74.90
5775;DHT22;2913;51.120;6.772;2022-08-03T09:29:54;31.50;76.10
5775;DHT22;2913;51.120;6.772;2022-08-03T09:32:21;31.60;74.40
5775;DHT22;2913;51.120;6.772;2022-08-03T09:34:48;31.50;74.60
5775;DHT22;2913;51.120;6.772;2022-08-03T09:37:16;31.50;73.80
5775;DHT22;2913;51.120;6.772;2022-08-03T09:39:42;31.60;72.80
5775;DHT22;2913;51.120;6.772;2022-08-03T09:42:14;31.60;72.70
5775;DHT22;2913;51.120;6.772;2022-08-03T09:47:12;31.80;72.30
5775;DHT22;2913;51.120;6.772;2022-08-03T09:49:42;31.90;72.90
5775;DHT22;2913;51.120;6.772;2022-08-03T09:52:20;31.90;71.60
5775;DHT22;2913;51.120;6.772;2022-08-03T09:54:51;31.80;71.90
5775;DHT22;2913;51.120;6.772;2022-08-03T09:57:25;31.80;72.50
5775;DHT22;2913;51.120;6.772;2022-08-03T09:59:52;32.00;72.20
5775;DHT22;2913;51.120;6.772;2022-08-03T10:02:25;32.20;72.00
5775;DHT22;2913;51.120;6.772;2022-08-03T10:04:53;32.10;70.90
5775;DHT22;2913;51.120;6.772;2022-08-03T10:07:22;32.20;71.50
5775;DHT22;2913;51.120;6.772;2022-08-03T10:12:22;32.40;70.80
5775;DHT22;2913;51.120;6.772;2022-08-03T10:14:48;32.40;69.60
5775;DHT22;2913;51.120;6.772;2022-08-03T10:17:17;32.40;69.20
5775;DHT22;2913;51.120;6.772;2022-08-03T10:19:45;32.60;69.20
5775;DHT22;2913;51.120;6.772;2022-08-03T10:25:05;32.60;68.90
5775;DHT22;2913;51.120;6.772;2022-08-03T10:27:37;32.70;68.30
5775;DHT22;2913;51.120;6.772;2022-08-03T10:30:06;32.60;67.70
5775;DHT22;2913;51.120;6.772;2022-08-03T10:35:11;32.90;67.30
5775;DHT22;2913;51.120;6.772;2022-08-03T10:37:41;32.90;68.00
5775;DHT22;2913;51.120;6.772;2022-08-03T10:40:13;32.80;67.30
5775;DHT22;2913;51.120;6.772;2022-08-03T10:42:44;32.90;66.10
5775;DHT22;2913;51.120;6.772;2022-08-03T10:45:27;33.00;66.70
5775;DHT22;2913;51.120;6.772;2022-08-03T10:47:54;33.10;65.60
5775;DHT22;2913;51.120;6.772;2022-08-03T10:50:24;33.20;65.80
5775;DHT22;2913;51.120;6.772;2022-08-03T10:55:37;33.30;66.00
5775;DHT22;2913;51.120;6.772;2022-08-03T11:01:04;33.30;65.70
5775;DHT22;2913;51.120;6.772;2022-08-03T11:03:33;33.50;66.30
5775;DHT22;2913;51.120;6.772;2022-08-03T11:06:18;33.30;64.40
5775;DHT22;2913;51.120;6.772;2022-08-03T11:08:45;33.40;64.10
5775;DHT22;2913;51.120;6.772;2022-08-03T11:16:31;33.40;63.70
5775;DHT22;2913;51.120;6.772;2022-08-03T11:18:57;33.50;62.70
5775;DHT22;2913;51.120;6.772;2022-08-03T11:27:22;33.50;63.60
5775;DHT22;2913;51.120;6.772;2022-08-03T11:43:09;33.70;62.70
5775;DHT22;2913;51.120;6.772;2022-08-03T11:45:36;33.80;61.00
5775;DHT22;2913;51.120;6.772;2022-08-03T11:48:13;34.00;60.20
5775;DHT22;2913;51.120;6.772;2022-08-03T11:50:40;34.10;60.60
5775;DHT22;2913;51.120;6.772;2022-08-03T11:53:13;34.10;59.70
5775;DHT22;2913;51.120;6.772;2022-08-03T11:55:40;34.00;59.40
5775;DHT22;2913;51.120;6.772;2022-08-03T11:58:07;34.20;59.90
5775;DHT22;2913;51.120;6.772;2022-08-03T12:00:33;34.30;59.60
5775;DHT22;2913;51.120;6.772;2022-08-03T12:03:11;34.30;59.60
5775;DHT22;2913;51.120;6.772;2022-08-03T12:05:52;34.40;58.90
5775;DHT22;2913;51.120;6.772;2022-08-03T12:10:54;34.50;58.70
5775;DHT22;2913;51.120;6.772;2022-08-03T12:13:21;34.50;58.80
5775;DHT22;2913;51.120;6.772;2022-08-03T12:15:56;34.70;58.80
5775;DHT22;2913;51.120;6.772;2022-08-03T12:18:25;34.50;58.60
5775;DHT22;2913;51.120;6.772;2022-08-03T12:20:52;34.60;58.60
5775;DHT22;2913;51.120;6.772;2022-08-03T12:23:27;34.10;57.60
5775;DHT22;2913;51.120;6.772;2022-08-03T12:26:01;34.30;58.60
5775;DHT22;2913;51.120;6.772;2022-08-03T12:28:27;34.40;58.30
5775;DHT22;2913;51.120;6.772;2022-08-03T12:30:55;34.50;58.50
5775;DHT22;2913;51.120;6.772;2022-08-03T12:33:24;34.60;57.80
5775;DHT22;2913;51.120;6.772;2022-08-03T12:36:09;34.80;58.20
5775;DHT22;2913;51.120;6.772;2022-08-03T12:38:38;34.90;57.80
5775;DHT22;2913;51.120;6.772;2022-08-03T12:41:05;34.90;57.80
5775;DHT22;2913;51.120;6.772;2022-08-03T12:43:33;34.60;57.30
5775;DHT22;2913;51.120;6.772;2022-08-03T12:46:12;34.90;57.80
5775;DHT22;2913;51.120;6.772;2022-08-03T12:51:25;35.10;56.90
5775;DHT22;2913;51.120;6.772;2022-08-03T12:53:56;35.00;57.20
5775;DHT22;2913;51.120;6.772;2022-08-03T12:56:22;35.10;57.10
5775;DHT22;2913;51.120;6.772;2022-08-03T12:58:50;35.20;56.60
5775;DHT22;2913;51.120;6.772;2022-08-03T13:01:21;35.30;57.60
5775;DHT22;2913;51.120;6.772;2022-08-03T13:03:50;35.20;56.50
5775;DHT22;2913;51.120;6.772;2022-08-03T13:06:18;35.30;56.90
5775;DHT22;2913;51.120;6.772;2022-08-03T13:08:44;35.30;56.60
5775;DHT22;2913;51.120;6.772;2022-08-03T13:11:25;35.30;56.80
5775;DHT22;2913;51.120;6.772;2022-08-03T13:13:54;35.40;56.70
5775;DHT22;2913;51.120;6.772;2022-08-03T13:16:23;35.30;56.40
5775;DHT22;2913;51.120;6.772;2022-08-03T13:18:49;35.00;56.40
5775;DHT22;2913;51.120;6.772;2022-08-03T13:21:17;35.20;56.30
5775;DHT22;2913;51.120;6.772;2022-08-03T13:23:43;35.10;56.10
5775;DHT22;2913;51.120;6.772;2022-08-03T13:26:09;35.20;56.00
5775;DHT22;2913;51.120;6.772;2022-08-03T13:28:38;35.30;55.70
5775;DHT22;2913;51.120;6.772;2022-08-03T13:31:06;35.30;55.30
5775;DHT22;2913;51.120;6.772;2022-08-03T13:33:32;35.20;55.50
5775;DHT22;2913;51.120;6.772;2022-08-03T13:36:00;35.40;55.70
5775;DHT22;2913;51.120;6.772;2022-08-03T13:38:26;35.40;55.10
5775;DHT22;2913;51.120;6.772;2022-08-03T13:40:51;35.40;54.80
5775;DHT22;2913;51.120;6.772;2022-08-03T13:43:20;35.30;54.90
5775;DHT22;2913;51.120;6.772;2022-08-03T13:45:48;35.30;55.20
5775;DHT22;2913;51.120;6.772;2022-08-03T13:48:14;35.20;55.20
5775;DHT22;2913;51.120;6.772;2022-08-03T13:50:39;35.00;55.50
5775;DHT22;2913;51.120;6.772;2022-08-03T13:53:07;34.70;54.70
5775;DHT22;2913;51.120;6.772;2022-08-03T13:55:33;34.80;55.10
5775;DHT22;2913;51.120;6.772;2022-08-03T13:57:58;34.80;55.40
5775;DHT22;2913;51.120;6.772;2022-08-03T14:00:24;34.90;55.80
5775;DHT22;2913;51.120;6.772;2022-08-03T14:02:51;35.00;55.90
5775;DHT22;2913;51.120;6.772;2022-08-03T14:05:16;35.20;55.70
5775;DHT22;2913;51.120;6.772;2022-08-03T14:07:42;35.30;55.70
5775;DHT22;2913;51.120;6.772;2022-08-03T14:10:08;35.40;55.70
5775;DHT22;2913;51.120;6.772;2022-08-03T14:12:34;35.30;55.40
5775;DHT22;2913;51.120;6.772;2022-08-03T14:14:59;35.30;55.40
5775;DHT22;2913;51.120;6.772;2022-08-03T14:17:27;35.30;55.40
5775;DHT22;2913;51.120;6.772;2022-08-03T14:19:55;35.40;55.10
5775;DHT22;2913;51.120;6.772;2022-08-03T14:22:23;35.40;55.30
5775;DHT22;2913;51.120;6.772;2022-08-03T14:24:51;35.30;55.00
5775;DHT22;2913;51.120;6.772;2022-08-03T14:27:17;35.30;55.20
5775;DHT22;2913;51.120;6.772;2022-08-03T14:29:45;35.20;55.30
5775;DHT22;2913;51.120;6.772;2022-08-03T14:32:10;35.30;55.30
5775;DHT22;2913;51.120;6.772;2022-08-03T14:34:38;35.30;55.00
5775;DHT22;2913;51.120;6.772;2022-08-03T14:37:06;35.30;55.20
5775;DHT22;2913;51.120;6.772;2022-08-03T14:39:32;35.40;55.00
5775;DHT22;2913;51.120;6.772;2022-08-03T14:41:58;35.40;55.10
5775;DHT22;2913;51.120;6.772;2022-08-03T14:44:23;35.00;54.70
5775;DHT22;2913;51.120;6.772;2022-08-03T14:46:49;35.20;54.70
5775;DHT22;2913;51.120;6.772;2022-08-03T14:49:14;35.10;54.50
5775;DHT22;2913;51.120;6.772;2022-08-03T14:51:40;35.20;54.90
5775;DHT22;2913;51.120;6.772;2022-08-03T14:54:05;35.20;55.20
5775;DHT22;2913;51.120;6.772;2022-08-03T14:56:31;35.30;55.40
5775;DHT22;2913;51.120;6.772;2022-08-03T14:58:59;35.50;55.00
5775;DHT22;2913;51.120;6.772;2022-08-03T15:01:27;35.40;54.50
5775;DHT22;2913;51.120;6.772;2022-08-03T15:03:52;35.60;54.50
5775;DHT22;2913;51.120;6.772;2022-08-03T15:06:18;35.60;54.30
5775;DHT22;2913;51.120;6.772;2022-08-03T15:08:44;35.70;53.80
5775;DHT22;2913;51.120;6.772;2022-08-03T15:11:13;35.50;54.40
5775;DHT22;2913;51.120;6.772;2022-08-03T15:13:38;35.60;54.20
5775;DHT22;2913;51.120;6.772;2022-08-03T15:16:04;35.80;53.90
5775;DHT22;2913;51.120;6.772;2022-08-03T15:18:30;35.60;53.30
5775;DHT22;2913;51.120;6.772;2022-08-03T15:20:56;35.30;53.60
5775;DHT22;2913;51.120;6.772;2022-08-03T15:23:21;35.30;54.30
5775;DHT22;2913;51.120;6.772;2022-08-03T15:25:50;35.30;54.20
5775;DHT22;2913;51.120;6.772;2022-08-03T15:28:16;35.30;54.40
5775;DHT22;2913;51.120;6.772;2022-08-03T15:30:41;35.40;54.40
5775;DHT22;2913;51.120;6.772;2022-08-03T15:33:07;35.30;53.20
5775;DHT22;2913;51.120;6.772;2022-08-03T15:35:35;35.30;53.60
5775;DHT22;2913;51.120;6.772;2022-08-03T15:38:03;35.30;53.80
5775;DHT22;2913;51.120;6.772;2022-08-03T15:40:28;35.30;53.40
5775;DHT22;2913;51.120;6.772;2022-08-03T15:42:54;35.30;53.10
5775;DHT22;2913;51.120;6.772;2022-08-03T15:45:20;35.30;52.90
5775;DHT22;2913;51.120;6.772;2022-08-03T15:47:45;35.20;53.10
5775;DHT22;2913;51.120;6.772;2022-08-03T15:50:11;35.10;53.10
5775;DHT22;2913;51.120;6.772;2022-08-03T15:52:37;34.70;52.80
5775;DHT22;2913;51.120;6.772;2022-08-03T15:55:03;34.50;52.70
5775;DHT22;2913;51.120;6.772;2022-08-03T15:57:31;34.60;52.80
5775;DHT22;2913;51.120;6.772;2022-08-03T15:59:57;34.50;53.10
5775;DHT22;2913;51.120;6.772;2022-08-03T16:02:22;34.70;52.60
5775;DHT22;2913;51.120;6.772;2022-08-03T16:04:48;34.60;52.80
5775;DHT22;2913;51.120;6.772;2022-08-03T16:07:16;34.60;53.10
5775;DHT22;2913;51.120;6.772;2022-08-03T16:10:02;34.50;54.10
5775;DHT22;2913;51.120;6.772;2022-08-03T16:12:28;34.50;53.50
5775;DHT22;2913;51.120;6.772;2022-08-03T16:14:56;34.30;53.00
5775;DHT22;2913;51.120;6.772;2022-08-03T16:17:23;34.30;53.20
5775;DHT22;2913;51.120;6.772;2022-08-03T16:19:49;34.30;53.20
5775;DHT22;2913;51.120;6.772;2022-08-03T16:22:15;34.40;53.80
5775;DHT22;2913;51.120;6.772;2022-08-03T16:24:42;34.20;53.20
5775;DHT22;2913;51.120;6.772;2022-08-03T16:27:08;34.10;53.40
5775;DHT22;2913;51.120;6.772;2022-08-03T16:29:33;34.20;53.50
5775;DHT22;2913;51.120;6.772;2022-08-03T16:31:59;34.30;53.30
5775;DHT22;2913;51.120;6.772;2022-08-03T16:34:34;34.30;53.30
5775;DHT22;2913;51.120;6.772;2022-08-03T16:37:00;34.30;53.20
5775;DHT22;2913;51.120;6.772;2022-08-03T16:39:26;34.40;53.80
5775;DHT22;2913;51.120;6.772;2022-08-03T16:41:54;34.50;54.20
5775;DHT22;2913;51.120;6.772;2022-08-03T16:44:20;34.50;53.50
5775;DHT22;2913;51.120;6.772;2022-08-03T16:46:46;34.40;53.40
5775;DHT22;2913;51.120;6.772;2022-08-03T16:49:16;34.40;53.90
5775;DHT22;2913;51.120;6.772;2022-08-03T16:51:42;34.40;53.30
5775;DHT22;2913;51.120;6.772;2022-08-03T16:54:09;34.10;53.30
5775;DHT22;2913;51.120;6.772;2022-08-03T16:56:37;33.90;53.40
5775;DHT22;2913;51.120;6.772;2022-08-03T16:59:03;33.80;54.30
5775;DHT22;2913;51.120;6.772;2022-08-03T17:01:29;33.80;54.80
5775;DHT22;2913;51.120;6.772;2022-08-03T17:03:59;33.70;55.30
5775;DHT22;2913;51.120;6.772;2022-08-03T17:06:25;33.70;55.10
5775;DHT22;2913;51.120;6.772;2022-08-03T17:08:54;33.80;55.00
5775;DHT22;2913;51.120;6.772;2022-08-03T17:11:20;33.80;54.80
5775;DHT22;2913;51.120;6.772;2022-08-03T17:13:46;33.80;54.60
5775;DHT22;2913;51.120;6.772;2022-08-03T17:16:17;33.80;55.30
5775;DHT22;2913;51.120;6.772;2022-08-03T17:18:51;33.80;54.70
5775;DHT22;2913;51.120;6.772;2022-08-03T17:21:22;33.70;54.50